sensor_id;sensor_type;location;lat;lon;timestamp;temperature;humidity
14884;DHT22;7534;50.762;7.000;2023-03-11T00:00:23;2.90;99.90
14884;DHT22;7534;50.762;7.000;2023-03-11T00:02:51;3.00;99.90
14884;DHT22;7534;50.762;7.000;2023-03-11T00:05:28;3.00;99.90
14884;DHT22;7534;50.762;7.000;2023-03-11T00:07:59;3.10;99.90
14884;DHT22;7534;50.762;7.000;2023-03-11T00:10:31;3.20;99.90
14884;DHT22;7534;50.762;7.000;2023-03-11T00:13:00;3.10;99.90
14884;DHT22;7534;50.762;7.000;2023-03-11T00:15:28;3.10;99.90
14884;DHT22;7534;50.762;7.000;2023-03-11T00:17:54;3.10;99.90
14884;DHT22;7534;50.762;7.000;2023-03-11T00:22:56;3.00;99.90
14884;DHT22;7534;50.762;7.000;2023-03-11T00:25:24;3.10;99.90
14884;DHT22;7534;50.762;7.000;2023-03-11T00:27:52;3.20;99.90
14884;DHT22;7534;50.762;7.000;2023-03-11T00:30:19;3.10;99.90
14884;DHT22;7534;50.762;7.000;2023-03-11T00:32:50;3.00;99.90
14884;DHT22;7534;50.762;7.000;2023-03-11T00:35:20;3.10;99.90
14884;DHT22;7534;50.762;7.000;2023-03-11T00:37:53;3.20;99.90
14884;DHT22;7534;50.762;7.000;2023-03-11T00:40:22;3.10;99.90
14884;DHT22;7534;50.762;7.000;2023-03-11T00:42:49;3.10;99.90
14884;DHT22;7534;50.762;7.000;2023-03-11T00:45:15;3.20;99.90
14884;DHT22;7534;50.762;7.000;2023-03-11T00:47:40;3.20;99.90
14884;DHT22;7534;50.762;7.000;2023-03-11T00:50:07;3.20;99.90
14884;DHT22;7534;50.762;7.000;2023-03-11T00:52:34;3.20;99.90
14884;DHT22;7534;50.762;7.000;2023-03-11T00:55:00;3.10;99.90
14884;DHT22;7534;50.762;7.000;2023-03-11T00:57:25;3.10;99.90
14884;DHT22;7534;50.762;7.000;2023-03-11T00:59:54;3.10;99.90
14884;DHT22;7534;50.762;7.000;2023-03-11T01:02:20;3.10;99.90
14884;DHT22;7534;50.762;7.000;2023-03-11T01:04:46;3.20;99.90
14884;DHT22;7534;50.762;7.000;2023-03-11T01:07:11;3.20;99.90
14884;DHT22;7534;50.762;7.000;2023-03-11T01:09:37;3.20;99.90
14884;DHT22;7534;50.762;7.000;2023-03-11T01:12:03;3.20;99.90
14884;DHT22;7534;50.762;7.000;2023-03-11T01:14:29;3.10;99.90
14884;DHT22;7534;50.762;7.000;2023-03-11T01:16:55;3.20;99.90
14884;DHT22;7534;50.762;7.000;2023-03-11T01:19:21;3.10;99.90
14884;DHT22;7534;50.762;7.000;2023-03-11T01:21:47;3.00;99.90
14884;DHT22;7534;50.762;7.000;2023-03-11T01:24:12;3.00;99.90
14884;DHT22;7534;50.762;7.000;2023-03-11T01:26:38;3.00;99.90
14884;DHT22;7534;50.762;7.000;2023-03-11T01:29:04;2.80;99.90
14884;DHT22;7534;50.762;7.000;2023-03-11T01:31:29;2.90;99.90
14884;DHT22;7534;50.762;7.000;2023-03-11T01:33:56;2.80;99.90
14884;DHT22;7534;50.762;7.000;2023-03-11T01:36:22;2.90;99.90
14884;DHT22;7534;50.762;7.000;2023-03-11T01:38:47;3.00;99.90
14884;DHT22;7534;50.762;7.000;2023-03-11T01:41:13;3.10;99.90
14884;DHT22;7534;50.762;7.000;2023-03-11T01:43:48;3.00;99.90
14884;DHT22;7534;50.762;7.000;2023-03-11T01:46:29;3.10;99.90
14884;DHT22;7534;50.762;7.000;2023-03-11T01:49:25;3.10;99.90
14884;DHT22;7534;50.762;7.000;2023-03-11T01:51:54;3.10;99.90
14884;DHT22;7534;50.762;7.000;2023-03-11T01:54:27;3.10;99.90
14884;DHT22;7534;50.762;7.000;2023-03-11T01:56:57;3.10;99.90
14884;DHT22;7534;50.762;7.000;2023-03-11T01:59:32;3.10;99.90
14884;DHT22;7534;50.762;7.000;2023-03-11T02:02:20;3.00;99.90
14884;DHT22;7534;50.762;7.000;2023-03-11T02:04:50;3.10;99.90
14884;DHT22;7534;50.762;7.000;2023-03-11T02:07:17;3.00;99.90
14884;DHT22;7534;50.762;7.000;2023-03-11T02:09:43;3.00;99.90
14884;DHT22;7534;50.762;7.000;2023-03-11T02:12:10;3.00;99.90
14884;DHT22;7534;50.762;7.000;2023-03-11T02:14:42;2.90;99.90
14884;DHT22;7534;50.762;7.000;2023-03-11T02:17:11;3.00;99.90
14884;DHT22;7534;50.762;7.000;2023-03-11T02:22:26;2.80;99.90
14884;DHT22;7534;50.762;7.000;2023-03-11T02:27:39;2.70;99.90
14884;DHT22;7534;50.762;7.000;2023-03-11T02:30:10;2.80;99.90
14884;DHT22;7534;50.762;7.000;2023-03-11T02:32:38;2.80;99.90
14884;DHT22;7534;50.762;7.000;2023-03-11T02:35:05;2.80;99.90
14884;DHT22;7534;50.762;7.000;2023-03-11T02:37:31;2.90;99.90
14884;DHT22;7534;50.762;7.000;2023-03-11T02:42:57;2.70;99.90
14884;DHT22;7534;50.762;7.000;2023-03-11T02:45:26;2.70;99.90
14884;DHT22;7534;50.762;7.000;2023-03-11T02:47:56;2.60;99.90
14884;DHT22;7534;50.762;7.000;2023-03-11T02:50:24;2.60;99.90
14884;DHT22;7534;50.762;7.000;2023-03-11T02:52:52;2.60;99.90
14884;DHT22;7534;50.762;7.000;2023-03-11T02:55:19;2.50;99.90
14884;DHT22;7534;50.762;7.000;2023-03-11T02:57:46;2.50;99.90
14884;DHT22;7534;50.762;7.000;2023-03-11T03:00:14;2.60;99.90
14884;DHT22;7534;50.762;7.000;2023-03-11T03:02:43;2.60;99.90
14884;DHT22;7534;50.762;7.000;2023-03-11T03:05:11;2.60;99.90
14884;DHT22;7534;50.762;7.000;2023-03-11T03:07:37;2.60;99.60
14884;DHT22;7534;50.762;7.000;2023-03-11T03:10:05;2.60;99.40
14884;DHT22;7534;50.762;7.000;2023-03-11T03:12:31;2.60;99.50
14884;DHT22;7534;50.762;7.000;2023-03-11T03:14:56;2.50;99.80
14884;DHT22;7534;50.762;7.000;2023-03-11T03:17:23;2.50;99.70
14884;DHT22;7534;50.762;7.000;2023-03-11T03:19:49;2.50;99.60
14884;DHT22;7534;50.762;7.000;2023-03-11T03:22:14;2.40;99.50
14884;DHT22;7534;50.762;7.000;2023-03-11T03:24:40;2.30;99.60
14884;DHT22;7534;50.762;7.000;2023-03-11T03:27:06;2.20;99.90
14884;DHT22;7534;50.762;7.000;2023-03-11T03:29:32;2.20;99.90
14884;DHT22;7534;50.762;7.000;2023-03-11T03:31:57;2.10;99.90
14884;DHT22;7534;50.762;7.000;2023-03-11T03:34:23;2.10;99.90
14884;DHT22;7534;50.762;7.000;2023-03-11T03:36:50;2.10;99.90
14884;DHT22;7534;50.762;7.000;2023-03-11T03:39:16;2.00;99.90
14884;DHT22;7534;50.762;7.000;2023-03-11T03:41:44;2.00;99.90
14884;DHT22;7534;50.762;7.000;2023-03-11T03:44:10;2.00;99.90
14884;DHT22;7534;50.762;7.000;2023-03-11T03:46:36;2.00;99.90
14884;DHT22;7534;50.762;7.000;2023-03-11T03:49:02;2.00;99.90
14884;DHT22;7534;50.762;7.000;2023-03-11T03:51:28;1.80;99.90
14884;DHT22;7534;50.762;7.000;2023-03-11T03:53:54;1.80;99.90
14884;DHT22;7534;50.762;7.000;2023-03-11T03:56:20;1.70;99.90
14884;DHT22;7534;50.762;7.000;2023-03-11T03:58:45;1.70;99.90
14884;DHT22;7534;50.762;7.000;2023-03-11T04:01:11;1.60;99.90
14884;DHT22;7534;50.762;7.000;2023-03-11T04:03:37;1.50;99.90
14884;DHT22;7534;50.762;7.000;2023-03-11T04:08:53;1.30;99.90
14884;DHT22;7534;50.762;7.000;2023-03-11T04:11:19;1.30;99.90
14884;DHT22;7534;50.762;7.000;2023-03-11T04:13:45;1.30;99.90
14884;DHT22;7534;50.762;7.000;2023-03-11T04:16:17;1.30;99.90
14884;DHT22;7534;50.762;7.000;2023-03-11T04:18:45;1.20;99.90
14884;DHT22;7534;50.762;7.000;2023-03-11T04:21:11;1.20;99.90
14884;DHT22;7534;50.762;7.000;2023-03-11T04:23:37;1.20;99.90
14884;DHT22;7534;50.762;7.000;2023-03-11T04:26:03;1.10;99.90
14884;DHT22;7534;50.762;7.000;2023-03-11T04:28:29;1.10;99.90
14884;DHT22;7534;50.762;7.000;2023-03-11T04:30:54;1.00;99.90
14884;DHT22;7534;50.762;7.000;2023-03-11T04:33:20;1.00;99.90
14884;DHT22;7534;50.762;7.000;2023-03-11T04:35:45;1.00;99.90
14884;DHT22;7534;50.762;7.000;2023-03-11T04:38:11;1.10;99.90
14884;DHT22;7534;50.762;7.000;2023-03-11T04:40:38;1.00;99.90
14884;DHT22;7534;50.762;7.000;2023-03-11T04:43:04;1.00;99.90
14884;DHT22;7534;50.762;7.000;2023-03-11T04:45:30;1.00;99.90
14884;DHT22;7534;50.762;7.000;2023-03-11T04:47:55;1.00;99.90
14884;DHT22;7534;50.762;7.000;2023-03-11T04:50:21;1.10;99.90
14884;DHT22;7534;50.762;7.000;2023-03-11T04:52:47;1.10;99.90
14884;DHT22;7534;50.762;7.000;2023-03-11T04:55:14;1.20;99.90
14884;DHT22;7534;50.762;7.000;2023-03-11T04:57:41;1.10;99.90
14884;DHT22;7534;50.762;7.000;2023-03-11T05:00:09;1.20;99.90
14884;DHT22;7534;50.762;7.000;2023-03-11T05:02:38;1.20;99.90
14884;DHT22;7534;50.762;7.000;2023-03-11T05:05:05;1.00;99.90
14884;DHT22;7534;50.762;7.000;2023-03-11T05:07:32;1.10;99.90
14884;DHT22;7534;50.762;7.000;2023-03-11T05:09:58;1.20;99.90
14884;DHT22;7534;50.762;7.000;2023-03-11T05:12:25;1.20;99.90
14884;DHT22;7534;50.762;7.000;2023-03-11T05:14:50;1.20;99.90
14884;DHT22;7534;50.762;7.000;2023-03-11T05:17:16;1.10;99.90
14884;DHT22;7534;50.762;7.000;2023-03-11T05:19:44;1.10;99.90
14884;DHT22;7534;50.762;7.000;2023-03-11T05:22:10;1.00;99.90
14884;DHT22;7534;50.762;7.000;2023-03-11T05:24:36;1.00;99.90
14884;DHT22;7534;50.762;7.000;2023-03-11T05:27:02;0.90;99.90
14884;DHT22;7534;50.762;7.000;2023-03-11T05:29:29;0.90;99.90
14884;DHT22;7534;50.762;7.000;2023-03-11T05:31:54;0.80;99.90
14884;DHT22;7534;50.762;7.000;2023-03-11T05:34:20;0.90;99.90
14884;DHT22;7534;50.762;7.000;2023-03-11T05:36:46;1.00;99.90
14884;DHT22;7534;50.762;7.000;2023-03-11T05:39:12;1.00;99.90
14884;DHT22;7534;50.762;7.000;2023-03-11T05:41:38;1.00;99.90
14884;DHT22;7534;50.762;7.000;2023-03-11T05:44:03;1.10;99.90
14884;DHT22;7534;50.762;7.000;2023-03-11T05:46:29;1.10;99.90
14884;DHT22;7534;50.762;7.000;2023-03-11T05:48:57;1.20;99.90
14884;DHT22;7534;50.762;7.000;2023-03-11T05:51:24;1.20;99.90
14884;DHT22;7534;50.762;7.000;2023-03-11T05:53:50;1.30;99.90
14884;DHT22;7534;50.762;7.000;2023-03-11T05:56:20;1.40;99.90
14884;DHT22;7534;50.762;7.000;2023-03-11T05:58:48;1.30;99.90
14884;DHT22;7534;50.762;7.000;2023-03-11T06:01:16;1.30;99.90
14884;DHT22;7534;50.762;7.000;2023-03-11T06:03:44;1.30;99.90
14884;DHT22;7534;50.762;7.000;2023-03-11T06:06:11;1.30;99.90
14884;DHT22;7534;50.762;7.000;2023-03-11T06:08:38;1.40;99.90
14884;DHT22;7534;50.762;7.000;2023-03-11T06:11:06;1.50;99.90
14884;DHT22;7534;50.762;7.000;2023-03-11T06:13:34;1.60;99.90
14884;DHT22;7534;50.762;7.000;2023-03-11T06:16:01;1.60;99.90
14884;DHT22;7534;50.762;7.000;2023-03-11T06:18:27;1.70;99.90
14884;DHT22;7534;50.762;7.000;2023-03-11T06:20:57;1.90;99.90
14884;DHT22;7534;50.762;7.000;2023-03-11T06:23:24;1.90;99.90
14884;DHT22;7534;50.762;7.000;2023-03-11T06:25:57;2.10;99.90
14884;DHT22;7534;50.762;7.000;2023-03-11T06:28:25;2.20;99.90
14884;DHT22;7534;50.762;7.000;2023-03-11T06:30:52;2.50;99.90
14884;DHT22;7534;50.762;7.000;2023-03-11T06:33:21;2.70;99.90
14884;DHT22;7534;50.762;7.000;2023-03-11T06:35:58;3.00;99.10
14884;DHT22;7534;50.762;7.000;2023-03-11T06:38:25;3.30;99.10
14884;DHT22;7534;50.762;7.000;2023-03-11T06:40:51;3.70;98.90
14884;DHT22;7534;50.762;7.000;2023-03-11T06:43:17;3.80;97.60
14884;DHT22;7534;50.762;7.000;2023-03-11T06:45:43;4.00;97.10
14884;DHT22;7534;50.762;7.000;2023-03-11T06:48:09;4.60;96.50
14884;DHT22;7534;50.762;7.000;2023-03-11T06:50:35;5.10;94.40
14884;DHT22;7534;50.762;7.000;2023-03-11T06:53:00;5.10;94.30
14884;DHT22;7534;50.762;7.000;2023-03-11T06:55:27;4.90;93.90
14884;DHT22;7534;50.762;7.000;2023-03-11T06:57:53;4.80;94.70
14884;DHT22;7534;50.762;7.000;2023-03-11T07:00:18;4.90;94.50
14884;DHT22;7534;50.762;7.000;2023-03-11T07:02:44;4.90;94.70
14884;DHT22;7534;50.762;7.000;2023-03-11T07:05:10;4.70;94.70
14884;DHT22;7534;50.762;7.000;2023-03-11T07:07:37;4.60;95.20
14884;DHT22;7534;50.762;7.000;2023-03-11T07:10:04;4.60;95.30
14884;DHT22;7534;50.762;7.000;2023-03-11T07:12:30;4.40;95.30
14884;DHT22;7534;50.762;7.000;2023-03-11T07:14:57;4.10;95.90
14884;DHT22;7534;50.762;7.000;2023-03-11T07:17:24;3.90;96.30
14884;DHT22;7534;50.762;7.000;2023-03-11T07:19:50;3.80;96.80
14884;DHT22;7534;50.762;7.000;2023-03-11T07:22:16;3.80;97.00
14884;DHT22;7534;50.762;7.000;2023-03-11T07:24:47;3.70;96.60
14884;DHT22;7534;50.762;7.000;2023-03-11T07:27:14;3.60;96.90
14884;DHT22;7534;50.762;7.000;2023-03-11T07:29:40;3.70;97.40
14884;DHT22;7534;50.762;7.000;2023-03-11T07:32:06;3.70;97.60
14884;DHT22;7534;50.762;7.000;2023-03-11T07:34:33;4.00;98.00
14884;DHT22;7534;50.762;7.000;2023-03-11T07:36:58;4.40;97.30
14884;DHT22;7534;50.762;7.000;2023-03-11T07:39:24;4.50;96.30
14884;DHT22;7534;50.762;7.000;2023-03-11T07:41:50;4.40;95.80
14884;DHT22;7534;50.762;7.000;2023-03-11T07:44:17;4.50;96.40
14884;DHT22;7534;50.762;7.000;2023-03-11T07:46:43;4.70;95.80
14884;DHT22;7534;50.762;7.000;2023-03-11T07:49:10;6.30;95.80
14884;DHT22;7534;50.762;7.000;2023-03-11T07:51:36;8.00;92.20
14884;DHT22;7534;50.762;7.000;2023-03-11T07:54:04;7.90;89.90
14884;DHT22;7534;50.762;7.000;2023-03-11T07:56:32;8.00;90.10
14884;DHT22;7534;50.762;7.000;2023-03-11T07:59:01;10.10;87.70
14884;DHT22;7534;50.762;7.000;2023-03-11T08:01:29;11.00;79.30
14884;DHT22;7534;50.762;7.000;2023-03-11T08:04:02;10.10;76.80
14884;DHT22;7534;50.762;7.000;2023-03-11T08:06:31;10.20;78.30
14884;DHT22;7534;50.762;7.000;2023-03-11T08:09:00;11.20;78.30
14884;DHT22;7534;50.762;7.000;2023-03-11T08:11:28;11.10;73.90
14884;DHT22;7534;50.762;7.000;2023-03-11T08:13:54;11.70;75.10
14884;DHT22;7534;50.762;7.000;2023-03-11T08:16:22;12.20;72.80
14884;DHT22;7534;50.762;7.000;2023-03-11T08:18:51;13.40;71.80
14884;DHT22;7534;50.762;7.000;2023-03-11T08:21:20;14.60;62.70
14884;DHT22;7534;50.762;7.000;2023-03-11T08:23:48;14.30;59.50
14884;DHT22;7534;50.762;7.000;2023-03-11T08:26:18;15.80;58.50
14884;DHT22;7534;50.762;7.000;2023-03-11T08:28:46;14.90;57.60
14884;DHT22;7534;50.762;7.000;2023-03-11T08:31:21;16.10;54.50
14884;DHT22;7534;50.762;7.000;2023-03-11T08:33:50;17.50;51.30
14884;DHT22;7534;50.762;7.000;2023-03-11T08:36:18;18.10;47.00
14884;DHT22;7534;50.762;7.000;2023-03-11T08:38:45;17.30;45.70
14884;DHT22;7534;50.762;7.000;2023-03-11T08:41:11;17.70;45.30
14884;DHT22;7534;50.762;7.000;2023-03-11T08:43:38;17.90;43.20
14884;DHT22;7534;50.762;7.000;2023-03-11T08:46:04;16.80;47.70
14884;DHT22;7534;50.762;7.000;2023-03-11T08:48:35;15.90;45.20
14884;DHT22;7534;50.762;7.000;2023-03-11T08:51:08;17.00;45.80
14884;DHT22;7534;50.762;7.000;2023-03-11T08:53:38;16.50;44.10
14884;DHT22;7534;50.762;7.000;2023-03-11T08:56:04;16.40;45.30
14884;DHT22;7534;50.762;7.000;2023-03-11T08:58:30;16.50;48.20
14884;DHT22;7534;50.762;7.000;2023-03-11T09:00:56;18.10;44.80
14884;DHT22;7534;50.762;7.000;2023-03-11T09:03:22;16.10;42.80
14884;DHT22;7534;50.762;7.000;2023-03-11T09:05:48;15.00;47.00
14884;DHT22;7534;50.762;7.000;2023-03-11T09:08:14;15.50;47.30
14884;DHT22;7534;50.762;7.000;2023-03-11T09:10:39;16.70;45.90
14884;DHT22;7534;50.762;7.000;2023-03-11T09:13:05;16.60;41.70
14884;DHT22;7534;50.762;7.000;2023-03-11T09:15:31;17.20;41.50
14884;DHT22;7534;50.762;7.000;2023-03-11T09:17:56;17.80;41.30
14884;DHT22;7534;50.762;7.000;2023-03-11T09:20:23;18.00;40.50
14884;DHT22;7534;50.762;7.000;2023-03-11T09:22:49;18.00;38.70
14884;DHT22;7534;50.762;7.000;2023-03-11T09:25:15;17.70;37.30
14884;DHT22;7534;50.762;7.000;2023-03-11T09:27:41;16.40;39.00
14884;DHT22;7534;50.762;7.000;2023-03-11T09:30:08;15.20;41.80
14884;DHT22;7534;50.762;7.000;2023-03-11T09:35:00;12.90;48.30
14884;DHT22;7534;50.762;7.000;2023-03-11T09:37:26;11.90;50.70
14884;DHT22;7534;50.762;7.000;2023-03-11T09:39:54;12.90;47.70
14884;DHT22;7534;50.762;7.000;2023-03-11T09:42:28;13.20;43.60
14884;DHT22;7534;50.762;7.000;2023-03-11T09:45:20;12.90;44.10
14884;DHT22;7534;50.762;7.000;2023-03-11T09:50:57;14.30;43.20
14884;DHT22;7534;50.762;7.000;2023-03-11T09:53:40;15.70;40.10
14884;DHT22;7534;50.762;7.000;2023-03-11T09:56:09;15.80;38.50
14884;DHT22;7534;50.762;7.000;2023-03-11T09:58:45;12.90;40.30
14884;DHT22;7534;50.762;7.000;2023-03-11T10:01:17;12.50;47.60
14884;DHT22;7534;50.762;7.000;2023-03-11T10:03:51;12.20;45.90
14884;DHT22;7534;50.762;7.000;2023-03-11T10:06:23;12.80;48.40
14884;DHT22;7534;50.762;7.000;2023-03-11T10:09:33;13.60;46.90
14884;DHT22;7534;50.762;7.000;2023-03-11T10:12:29;13.10;44.10
14884;DHT22;7534;50.762;7.000;2023-03-11T10:15:20;12.20;46.90
14884;DHT22;7534;50.762;7.000;2023-03-11T10:21:17;11.00;48.60
14884;DHT22;7534;50.762;7.000;2023-03-11T10:24:06;10.30;52.30
14884;DHT22;7534;50.762;7.000;2023-03-11T10:26:46;9.80;52.40
14884;DHT22;7534;50.762;7.000;2023-03-11T10:32:23;9.00;54.70
14884;DHT22;7534;50.762;7.000;2023-03-11T10:35:14;9.10;54.90
14884;DHT22;7534;50.762;7.000;2023-03-11T10:37:49;9.00;55.90
14884;DHT22;7534;50.762;7.000;2023-03-11T10:40:32;9.30;54.00
14884;DHT22;7534;50.762;7.000;2023-03-11T10:43:04;9.30;55.40
14884;DHT22;7534;50.762;7.000;2023-03-11T10:45:38;9.50;56.40
14884;DHT22;7534;50.762;7.000;2023-03-11T10:48:16;9.30;57.10
14884;DHT22;7534;50.762;7.000;2023-03-11T10:51:00;9.20;56.70
14884;DHT22;7534;50.762;7.000;2023-03-11T10:53:53;9.20;55.30
14884;DHT22;7534;50.762;7.000;2023-03-11T10:56:30;9.70;57.90
14884;DHT22;7534;50.762;7.000;2023-03-11T10:59:04;10.30;54.90
14884;DHT22;7534;50.762;7.000;2023-03-11T11:01:56;10.80;53.00
14884;DHT22;7534;50.762;7.000;2023-03-11T11:04:36;10.50;47.60
14884;DHT22;7534;50.762;7.000;2023-03-11T11:07:31;10.70;49.80
14884;DHT22;7534;50.762;7.000;2023-03-11T11:10:14;10.90;46.20
14884;DHT22;7534;50.762;7.000;2023-03-11T11:15:28;11.40;46.20
14884;DHT22;7534;50.762;7.000;2023-03-11T11:18:05;11.20;44.70
14884;DHT22;7534;50.762;7.000;2023-03-11T11:20:56;11.00;45.20
14884;DHT22;7534;50.762;7.000;2023-03-11T11:23:49;11.40;47.90
14884;DHT22;7534;50.762;7.000;2023-03-11T11:26:26;11.30;49.60
14884;DHT22;7534;50.762;7.000;2023-03-11T11:31:36;11.10;44.30
14884;DHT22;7534;50.762;7.000;2023-03-11T11:34:27;11.20;47.00
14884;DHT22;7534;50.762;7.000;2023-03-11T11:36:52;11.80;45.20
14884;DHT22;7534;50.762;7.000;2023-03-11T11:39:22;11.40;44.10
14884;DHT22;7534;50.762;7.000;2023-03-11T11:41:52;11.30;44.50
14884;DHT22;7534;50.762;7.000;2023-03-11T11:44:21;10.70;45.20
14884;DHT22;7534;50.762;7.000;2023-03-11T11:46:58;10.50;46.60
14884;DHT22;7534;50.762;7.000;2023-03-11T11:49:34;10.40;49.80
14884;DHT22;7534;50.762;7.000;2023-03-11T11:52:35;10.30;48.20
14884;DHT22;7534;50.762;7.000;2023-03-11T11:55:24;10.80;50.00
14884;DHT22;7534;50.762;7.000;2023-03-11T11:57:52;10.80;47.60
14884;DHT22;7534;50.762;7.000;2023-03-11T12:00:33;10.70;47.80
14884;DHT22;7534;50.762;7.000;2023-03-11T12:03:42;10.90;48.10
14884;DHT22;7534;50.762;7.000;2023-03-11T12:09:39;11.30;45.30
14884;DHT22;7534;50.762;7.000;2023-03-11T12:12:35;11.10;42.30
14884;DHT22;7534;50.762;7.000;2023-03-11T12:15:33;11.00;43.40
14884;DHT22;7534;50.762;7.000;2023-03-11T12:18:10;10.90;43.50
14884;DHT22;7534;50.762;7.000;2023-03-11T12:20:53;10.40;44.00
14884;DHT22;7534;50.762;7.000;2023-03-11T12:26:50;10.80;46.50
14884;DHT22;7534;50.762;7.000;2023-03-11T12:29:23;10.60;46.50
14884;DHT22;7534;50.762;7.000;2023-03-11T12:31:54;10.50;45.10
14884;DHT22;7534;50.762;7.000;2023-03-11T12:34:22;10.60;47.60
14884;DHT22;7534;50.762;7.000;2023-03-11T12:36:55;10.80;47.20
14884;DHT22;7534;50.762;7.000;2023-03-11T12:39:32;10.60;44.30
14884;DHT22;7534;50.762;7.000;2023-03-11T12:42:20;10.90;45.80
14884;DHT22;7534;50.762;7.000;2023-03-11T12:44:47;10.80;45.30
14884;DHT22;7534;50.762;7.000;2023-03-11T12:49:41;10.60;46.00
14884;DHT22;7534;50.762;7.000;2023-03-11T13:08:54;11.80;44.10
14884;DHT22;7534;50.762;7.000;2023-03-11T13:14:22;11.60;44.20
14884;DHT22;7534;50.762;7.000;2023-03-11T13:16:53;11.90;44.30
14884;DHT22;7534;50.762;7.000;2023-03-11T13:21:51;11.90;47.70
14884;DHT22;7534;50.762;7.000;2023-03-11T13:29:51;11.80;49.10
14884;DHT22;7534;50.762;7.000;2023-03-11T13:32:46;11.60;47.00
14884;DHT22;7534;50.762;7.000;2023-03-11T13:35:49;10.70;45.40
14884;DHT22;7534;50.762;7.000;2023-03-11T13:41:34;10.90;52.30
14884;DHT22;7534;50.762;7.000;2023-03-11T13:46:58;11.00;50.60
14884;DHT22;7534;50.762;7.000;2023-03-11T13:49:53;11.00;48.40
14884;DHT22;7534;50.762;7.000;2023-03-11T13:52:37;11.20;48.00
14884;DHT22;7534;50.762;7.000;2023-03-11T13:55:31;11.40;47.10
14884;DHT22;7534;50.762;7.000;2023-03-11T13:58:00;11.10;46.70
14884;DHT22;7534;50.762;7.000;2023-03-11T14:00:52;10.90;45.80
14884;DHT22;7534;50.762;7.000;2023-03-11T14:03:21;10.70;52.10
14884;DHT22;7534;50.762;7.000;2023-03-11T14:06:02;10.70;50.90
14884;DHT22;7534;50.762;7.000;2023-03-11T14:08:38;10.50;47.90
14884;DHT22;7534;50.762;7.000;2023-03-11T14:13:48;9.80;50.80
14884;DHT22;7534;50.762;7.000;2023-03-11T14:16:33;9.70;51.20
14884;DHT22;7534;50.762;7.000;2023-03-11T14:19:15;9.40;48.80
14884;DHT22;7534;50.762;7.000;2023-03-11T14:21:43;9.30;50.70
14884;DHT22;7534;50.762;7.000;2023-03-11T14:24:18;9.50;52.80
14884;DHT22;7534;50.762;7.000;2023-03-11T14:26:47;9.40;53.40
14884;DHT22;7534;50.762;7.000;2023-03-11T14:29:20;9.50;54.80
14884;DHT22;7534;50.762;7.000;2023-03-11T14:31:55;9.30;53.00
14884;DHT22;7534;50.762;7.000;2023-03-11T14:34:22;9.00;54.10
14884;DHT22;7534;50.762;7.000;2023-03-11T14:36:55;8.90;53.00
14884;DHT22;7534;50.762;7.000;2023-03-11T14:42:06;8.80;56.80
14884;DHT22;7534;50.762;7.000;2023-03-11T14:44:40;8.60;54.70
14884;DHT22;7534;50.762;7.000;2023-03-11T14:47:17;8.20;55.50
14884;DHT22;7534;50.762;7.000;2023-03-11T14:49:49;7.90;58.40
14884;DHT22;7534;50.762;7.000;2023-03-11T14:52:31;7.90;60.40
14884;DHT22;7534;50.762;7.000;2023-03-11T14:55:05;7.80;60.60
14884;DHT22;7534;50.762;7.000;2023-03-11T14:57:44;7.70;62.30
14884;DHT22;7534;50.762;7.000;2023-03-11T15:00:24;7.50;63.00
14884;DHT22;7534;50.762;7.000;2023-03-11T15:06:19;7.40;63.80
14884;DHT22;7534;50.762;7.000;2023-03-11T15:09:01;7.30;61.60
14884;DHT22;7534;50.762;7.000;2023-03-11T15:11:52;7.20;61.50
14884;DHT22;7534;50.762;7.000;2023-03-11T15:14:29;7.10;61.00
14884;DHT22;7534;50.762;7.000;2023-03-11T15:17:18;7.40;62.50
14884;DHT22;7534;50.762;7.000;2023-03-11T15:19:46;7.60;62.30
14884;DHT22;7534;50.762;7.000;2023-03-11T15:22:39;7.70;63.70
14884;DHT22;7534;50.762;7.000;2023-03-11T15:25:16;8.00;64.80
14884;DHT22;7534;50.762;7.000;2023-03-11T15:27:44;8.30;64.30
14884;DHT22;7534;50.762;7.000;2023-03-11T15:32:51;8.90;58.10
14884;DHT22;7534;50.762;7.000;2023-03-11T15:35:19;9.00;55.70
14884;DHT22;7534;50.762;7.000;2023-03-11T15:38:19;8.90;53.70
14884;DHT22;7534;50.762;7.000;2023-03-11T15:40:57;9.10;55.30
14884;DHT22;7534;50.762;7.000;2023-03-11T15:43:29;9.40;56.20
14884;DHT22;7534;50.762;7.000;2023-03-11T15:45:59;9.60;56.70
14884;DHT22;7534;50.762;7.000;2023-03-11T15:48:27;9.60;53.30
14884;DHT22;7534;50.762;7.000;2023-03-11T15:50:58;9.60;52.90
14884;DHT22;7534;50.762;7.000;2023-03-11T15:53:26;9.80;53.20
14884;DHT22;7534;50.762;7.000;2023-03-11T15:55:54;9.90;53.20
14884;DHT22;7534;50.762;7.000;2023-03-11T15:58:23;10.10;52.60
14884;DHT22;7534;50.762;7.000;2023-03-11T16:00:54;9.90;50.50
14884;DHT22;7534;50.762;7.000;2023-03-11T16:03:22;10.00;49.70
14884;DHT22;7534;50.762;7.000;2023-03-11T16:05:49;10.10;50.10
14884;DHT22;7534;50.762;7.000;2023-03-11T16:08:15;10.10;50.60
14884;DHT22;7534;50.762;7.000;2023-03-11T16:10:41;10.00;50.10
14884;DHT22;7534;50.762;7.000;2023-03-11T16:13:11;9.50;52.00
14884;DHT22;7534;50.762;7.000;2023-03-11T16:15:38;9.40;54.10
14884;DHT22;7534;50.762;7.000;2023-03-11T16:18:06;8.90;53.90
14884;DHT22;7534;50.762;7.000;2023-03-11T16:23:06;9.00;57.00
14884;DHT22;7534;50.762;7.000;2023-03-11T16:25:38;9.00;58.20
14884;DHT22;7534;50.762;7.000;2023-03-11T16:28:05;8.70;55.80
14884;DHT22;7534;50.762;7.000;2023-03-11T16:30:33;8.30;55.50
14884;DHT22;7534;50.762;7.000;2023-03-11T16:33:01;8.30;59.10
14884;DHT22;7534;50.762;7.000;2023-03-11T16:35:26;8.40;59.10
14884;DHT22;7534;50.762;7.000;2023-03-11T16:37:52;8.50;58.10
14884;DHT22;7534;50.762;7.000;2023-03-11T16:40:22;8.40;56.90
14884;DHT22;7534;50.762;7.000;2023-03-11T16:43:07;8.20;57.00
14884;DHT22;7534;50.762;7.000;2023-03-11T16:45:35;8.20;59.70
14884;DHT22;7534;50.762;7.000;2023-03-11T16:48:02;8.10;60.00
14884;DHT22;7534;50.762;7.000;2023-03-11T16:50:30;8.00;59.20
14884;DHT22;7534;50.762;7.000;2023-03-11T16:52:57;7.90;57.60
14884;DHT22;7534;50.762;7.000;2023-03-11T16:55:24;7.80;57.10
14884;DHT22;7534;50.762;7.000;2023-03-11T16:57:52;7.80;59.30
14884;DHT22;7534;50.762;7.000;2023-03-11T17:00:20;7.70;63.30
14884;DHT22;7534;50.762;7.000;2023-03-11T17:02:46;7.60;65.50
14884;DHT22;7534;50.762;7.000;2023-03-11T17:05:12;7.40;67.20
14884;DHT22;7534;50.762;7.000;2023-03-11T17:07:38;7.20;66.90
14884;DHT22;7534;50.762;7.000;2023-03-11T17:10:04;7.10;66.00
14884;DHT22;7534;50.762;7.000;2023-03-11T17:12:31;6.90;65.90
14884;DHT22;7534;50.762;7.000;2023-03-11T17:14:57;6.80;68.10
14884;DHT22;7534;50.762;7.000;2023-03-11T17:17:23;6.60;71.70
14884;DHT22;7534;50.762;7.000;2023-03-11T17:19:48;6.40;73.00
14884;DHT22;7534;50.762;7.000;2023-03-11T17:22:15;6.20;73.70
14884;DHT22;7534;50.762;7.000;2023-03-11T17:24:41;6.00;74.10
14884;DHT22;7534;50.762;7.000;2023-03-11T17:27:07;5.80;75.80
14884;DHT22;7534;50.762;7.000;2023-03-11T17:29:33;5.70;78.30
14884;DHT22;7534;50.762;7.000;2023-03-11T17:31:59;5.50;79.20
14884;DHT22;7534;50.762;7.000;2023-03-11T17:34:26;5.20;80.10
14884;DHT22;7534;50.762;7.000;2023-03-11T17:36:51;5.00;82.50
14884;DHT22;7534;50.762;7.000;2023-03-11T17:39:18;4.90;83.90
14884;DHT22;7534;50.762;7.000;2023-03-11T17:41:44;4.70;85.10
14884;DHT22;7534;50.762;7.000;2023-03-11T17:44:10;4.60;86.70
14884;DHT22;7534;50.762;7.000;2023-03-11T17:46:37;4.40;87.90